Terminal Aerodrome Forecast
Issued by NWS

Home | Current Version | Previous Version | Text Only | Print | Product List | Glossary On
Versions: 1 2 3 4 5 6 7 8 9 10 11 12 13 14 15 16
283
FTUS43 KTOP 102031 AAA
TAFFOE
TAF AMD
KFOE 102031Z 1021/1118 24012KT P6SM SKC
     FM102300 33011KT P6SM SKC
     FM110400 02007KT P6SM SCT030 SCT130=

USA.gov is the U.S. government's official web portal to all federal, state and local government web resources and services.